createdAt,value
2022-10-05T00:00:17.058Z,7.72
2022-10-05T00:02:44.572Z,6.72
2022-10-05T00:05:33.757Z,6.28
2022-10-05T00:08:25.051Z,6.85
2022-10-05T00:10:52.458Z,5.45
2022-10-05T00:13:28.980Z,5.53
2022-10-05T00:16:11.712Z,5.50
2022-10-05T00:18:39.309Z,4.97
2022-10-05T00:21:19.631Z,6.10
2022-10-05T00:23:46.770Z,6.00
2022-10-05T00:26:25.430Z,6.43
2022-10-05T00:28:53.656Z,6.55
2022-10-05T00:31:25.969Z,6.05
2022-10-05T00:33:54.889Z,6.53
2022-10-05T00:36:21.643Z,6.65
2022-10-05T00:38:48.480Z,6.15
2022-10-05T00:41:23.357Z,6.80
2022-10-05T00:44:28.899Z,6.18
2022-10-05T00:47:07.780Z,6.13
2022-10-05T00:50:18.142Z,6.10
2022-10-05T00:53:29.034Z,5.80
2022-10-05T00:56:01.559Z,5.18
2022-10-05T00:58:55.482Z,4.63
2022-10-05T01:01:33.728Z,4.80
2022-10-05T01:04:15.503Z,5.75
2022-10-05T01:07:12.885Z,5.65
2022-10-05T01:10:10.698Z,5.25
2022-10-05T01:12:47.902Z,5.20
2022-10-05T01:15:24.435Z,4.70
2022-10-05T01:18:00.781Z,5.97
2022-10-05T01:21:05.878Z,4.88
2022-10-05T01:23:41.768Z,5.18
2022-10-05T01:26:14.624Z,5.05
2022-10-05T01:28:47.451Z,5.57
2022-10-05T01:31:35.254Z,6.18
2022-10-05T01:34:17.331Z,6.75
2022-10-05T01:37:00.728Z,5.10
2022-10-05T01:39:54.777Z,5.18
2022-10-05T01:42:42.075Z,4.60
2022-10-05T01:45:22.153Z,5.93
2022-10-05T01:47:58.012Z,5.45
2022-10-05T01:50:52.642Z,4.50
2022-10-05T01:53:30.733Z,5.78
2022-10-05T01:56:20.326Z,5.82
2022-10-05T01:59:28.803Z,6.03
2022-10-05T02:02:05.205Z,5.67
2022-10-05T02:05:02.341Z,5.22
2022-10-05T02:07:53.240Z,4.72
2022-10-05T02:10:28.291Z,5.70
2022-10-05T02:13:00.891Z,5.25
2022-10-05T02:15:36.908Z,5.85
2022-10-05T02:18:10.757Z,5.88
2022-10-05T02:20:42.185Z,5.25
2022-10-05T02:23:15.982Z,5.25
2022-10-05T02:25:46.835Z,5.25
2022-10-05T02:28:22.820Z,4.80
2022-10-05T02:30:58.653Z,4.38
2022-10-05T02:33:31.529Z,4.78
2022-10-05T02:36:23.435Z,5.78
2022-10-05T02:39:02.135Z,5.15
2022-10-05T02:41:58.843Z,5.75
2022-10-05T02:44:51.907Z,4.97
2022-10-05T02:47:33.483Z,5.63
2022-10-05T02:50:27.053Z,6.78
2022-10-05T02:53:14.304Z,7.25
2022-10-05T02:55:52.059Z,5.45
2022-10-05T02:58:23.371Z,6.32
2022-10-05T03:01:12.581Z,6.85
2022-10-05T03:04:09.850Z,6.95
2022-10-05T03:06:48.041Z,5.75
2022-10-05T03:09:18.168Z,5.97
2022-10-05T03:12:07.289Z,6.80
2022-10-05T03:14:55.968Z,6.22
2022-10-05T03:17:28.963Z,7.68
2022-10-05T03:20:28.291Z,5.78
2022-10-05T03:23:01.972Z,7.53
2022-10-05T03:25:49.676Z,6.70
2022-10-05T03:28:30.602Z,6.80
2022-10-05T03:31:14.830Z,8.13
2022-10-05T03:34:25.321Z,9.38
2022-10-05T03:37:23.843Z,10.00
2022-10-05T03:40:30.026Z,10.10
2022-10-05T03:43:16.758Z,10.57
2022-10-05T03:46:05.668Z,11.23
2022-10-05T03:48:40.016Z,12.95
2022-10-05T03:51:32.028Z,11.52
2022-10-05T03:54:29.619Z,10.90
2022-10-05T03:57:09.697Z,13.45
2022-10-05T03:59:46.746Z,13.32
2022-10-05T04:02:22.879Z,13.40
2022-10-05T04:04:56.862Z,12.25
2022-10-05T04:07:50.523Z,12.18
2022-10-05T04:10:22.347Z,17.25
2022-10-05T04:12:58.092Z,12.25
2022-10-05T04:15:44.998Z,12.88
2022-10-05T04:18:25.492Z,13.90
2022-10-05T04:20:57.604Z,15.43
2022-10-05T04:23:39.443Z,15.35
2022-10-05T04:26:19.372Z,15.25
2022-10-05T04:29:25.235Z,15.00
2022-10-05T04:32:19.173Z,12.60
2022-10-05T04:34:53.522Z,13.27
2022-10-05T04:37:34.283Z,15.77
2022-10-05T04:40:28.062Z,15.43
2022-10-05T04:43:13.515Z,13.20
2022-10-05T04:46:31.558Z,14.13
2022-10-05T04:49:24.989Z,14.30
2022-10-05T04:52:42.773Z,14.07
2022-10-05T04:55:37.311Z,15.82
2022-10-05T04:58:42.366Z,12.45
2022-10-05T05:01:35.520Z,17.05
2022-10-05T05:04:13.788Z,15.30
2022-10-05T05:07:04.628Z,16.05
2022-10-05T05:09:55.980Z,17.88
2022-10-05T05:12:31.503Z,18.35
2022-10-05T05:15:12.221Z,19.45
2022-10-05T05:18:07.686Z,21.45
2022-10-05T05:21:16.611Z,22.33
2022-10-05T05:24:05.670Z,20.48
2022-10-05T05:26:44.163Z,19.85
2022-10-05T05:29:22.924Z,23.10
2022-10-05T05:32:12.849Z,21.67
2022-10-05T05:35:00.517Z,18.85
2022-10-05T05:37:46.181Z,16.90
2022-10-05T05:40:18.040Z,12.65
2022-10-05T05:42:56.074Z,11.68
2022-10-05T05:45:40.679Z,10.98
2022-10-05T05:48:25.144Z,10.93
2022-10-05T05:51:04.036Z,10.52
2022-10-05T05:53:43.855Z,10.00
2022-10-05T05:56:34.439Z,11.77
2022-10-05T05:59:17.019Z,13.13
2022-10-05T06:01:48.894Z,12.65
2022-10-05T06:04:27.035Z,16.17
2022-10-05T06:06:57.968Z,14.68
2022-10-05T06:09:43.203Z,12.38
2022-10-05T06:15:37.764Z,17.00
2022-10-05T06:18:14.447Z,14.88
2022-10-05T06:20:52.238Z,15.82
2022-10-05T06:23:52.535Z,16.48
2022-10-05T06:26:19.570Z,15.65
2022-10-05T06:28:58.163Z,15.93
2022-10-05T06:32:02.981Z,13.90
2022-10-05T06:34:58.232Z,15.15
2022-10-05T06:37:50.216Z,14.43
2022-10-05T06:40:33.380Z,14.13
2022-10-05T06:43:30.631Z,14.85
2022-10-05T06:46:33.836Z,18.10
2022-10-05T06:49:32.133Z,15.68
2022-10-05T06:52:30.649Z,14.73
2022-10-05T06:55:14.316Z,12.70
2022-10-05T06:57:58.096Z,12.57
2022-10-05T07:00:34.258Z,14.98
2022-10-05T07:03:05.313Z,13.63
2022-10-05T07:06:02.491Z,12.20
2022-10-05T07:08:51.481Z,14.10
2022-10-05T07:11:52.717Z,17.05
2022-10-05T07:14:32.432Z,14.50
2022-10-05T07:17:23.363Z,14.15
2022-10-05T07:20:08.446Z,13.90
2022-10-05T07:22:50.313Z,12.95
2022-10-05T07:25:22.845Z,16.05
2022-10-05T07:28:19.838Z,19.10
2022-10-05T07:30:55.419Z,14.52
2022-10-05T07:33:47.409Z,15.38
2022-10-05T07:36:44.346Z,19.00
2022-10-05T07:39:55.460Z,18.10
2022-10-05T07:42:50.695Z,16.60
2022-10-05T07:45:33.142Z,26.50
2022-10-05T07:48:22.518Z,26.30
2022-10-05T07:51:11.172Z,26.95
2022-10-05T07:53:44.491Z,25.98
2022-10-05T07:56:23.574Z,28.10
2022-10-05T07:59:13.686Z,26.02
2022-10-05T08:01:48.622Z,29.40
2022-10-05T08:04:21.899Z,27.27
2022-10-05T08:06:56.574Z,30.33
2022-10-05T08:09:56.573Z,20.67
2022-10-05T08:12:34.363Z,25.77
2022-10-05T08:15:14.458Z,20.95
2022-10-05T08:17:59.973Z,20.67
2022-10-05T08:20:38.769Z,19.80
2022-10-05T08:23:39.527Z,22.33
2022-10-05T08:26:22.546Z,19.60
2022-10-05T08:29:03.310Z,19.63
2022-10-05T08:31:35.752Z,20.20
2022-10-05T08:34:17.393Z,22.05
2022-10-05T08:37:02.498Z,20.70
2022-10-05T08:39:36.136Z,19.33
2022-10-05T08:42:32.392Z,21.13
2022-10-05T08:45:11.077Z,24.08
2022-10-05T08:48:09.653Z,18.40
2022-10-05T08:51:05.772Z,19.08
2022-10-05T08:53:50.960Z,21.83
2022-10-05T08:56:39.030Z,19.63
2022-10-05T09:02:10.758Z,22.25
2022-10-05T09:04:46.234Z,18.80
2022-10-05T09:07:38.645Z,18.83
2022-10-05T09:10:29.774Z,16.00
2022-10-05T09:13:18.905Z,17.25
2022-10-05T09:16:17.981Z,16.50
2022-10-05T09:18:47.836Z,17.50
2022-10-05T09:21:33.137Z,17.35
2022-10-05T09:24:11.017Z,17.00
2022-10-05T09:26:40.718Z,22.85
2022-10-05T09:29:16.541Z,18.15
2022-10-05T09:32:20.885Z,20.40
2022-10-05T09:35:11.659Z,22.15
2022-10-05T09:37:50.476Z,24.27
2022-10-05T09:40:49.487Z,21.05
2022-10-05T09:43:26.599Z,24.65
2022-10-05T09:46:12.467Z,24.73
2022-10-05T09:49:07.388Z,27.23
2022-10-05T09:52:19.645Z,27.02
2022-10-05T09:55:31.493Z,25.60
2022-10-05T09:58:14.274Z,29.70
2022-10-05T10:01:08.996Z,30.85
2022-10-05T10:04:10.063Z,26.17
2022-10-05T10:07:13.676Z,25.60
2022-10-05T10:09:49.702Z,28.30
2022-10-05T10:12:34.616Z,22.27
2022-10-05T10:15:25.878Z,24.38
2022-10-05T10:18:16.599Z,21.70
2022-10-05T10:21:03.052Z,16.90
2022-10-05T10:24:00.968Z,15.98
2022-10-05T10:26:33.515Z,13.60
2022-10-05T10:32:05.894Z,11.07
2022-10-05T10:34:52.603Z,10.05
2022-10-05T10:37:31.509Z,10.63
2022-10-05T10:40:29.884Z,8.80
2022-10-05T10:42:59.288Z,8.57
2022-10-05T10:45:47.189Z,9.77
2022-10-05T10:48:19.575Z,9.38
2022-10-05T10:51:19.248Z,9.00
2022-10-05T10:54:12.151Z,9.00
2022-10-05T10:57:03.967Z,7.65
2022-10-05T10:59:45.218Z,7.13
2022-10-05T11:02:27.291Z,7.60
2022-10-05T11:05:23.108Z,6.47
2022-10-05T11:08:17.203Z,4.40
2022-10-05T11:11:18.154Z,4.22
2022-10-05T11:13:52.501Z,4.32
2022-10-05T11:16:40.886Z,4.53
2022-10-05T11:19:40.496Z,4.68
2022-10-05T11:22:54.973Z,4.22
2022-10-05T11:25:42.773Z,4.28
2022-10-05T11:28:27.647Z,3.03
2022-10-05T11:31:22.754Z,3.38
2022-10-05T11:34:02.464Z,2.63
2022-10-05T11:36:53.776Z,2.88
2022-10-05T11:39:38.092Z,3.33
2022-10-05T11:42:24.755Z,3.35
2022-10-05T11:45:11.729Z,2.88
2022-10-05T11:47:53.459Z,3.05
2022-10-05T11:50:39.523Z,3.08
2022-10-05T11:53:34.658Z,3.22
2022-10-05T11:56:08.135Z,2.85
2022-10-05T11:58:50.383Z,3.33
2022-10-05T12:01:34.557Z,3.78
2022-10-05T12:04:26.127Z,2.72
2022-10-05T12:07:20.492Z,3.60
2022-10-05T12:10:14.551Z,3.10
2022-10-05T12:13:13.324Z,3.30
2022-10-05T12:16:02.615Z,3.20
2022-10-05T12:18:32.607Z,3.50
2022-10-05T12:21:07.204Z,2.90
2022-10-05T12:23:41.476Z,3.05
2022-10-05T12:26:23.193Z,2.80
2022-10-05T12:29:01.544Z,2.83
2022-10-05T12:31:43.144Z,2.67
2022-10-05T12:34:17.380Z,3.00
2022-10-05T12:37:03.561Z,2.90
2022-10-05T12:39:50.388Z,2.88
2022-10-05T12:42:22.979Z,2.80
2022-10-05T12:45:10.760Z,3.00
2022-10-05T12:48:02.349Z,3.20
2022-10-05T12:50:36.695Z,2.45
2022-10-05T12:53:22.515Z,2.90
2022-10-05T12:56:00.689Z,3.72
2022-10-05T12:58:42.819Z,2.53
2022-10-05T13:01:35.644Z,2.90
2022-10-05T13:04:32.692Z,4.28
2022-10-05T13:07:13.039Z,3.75
2022-10-05T13:09:52.516Z,3.75
2022-10-05T13:12:41.249Z,4.00
2022-10-05T13:15:26.871Z,4.72
2022-10-05T13:18:19.121Z,3.95
2022-10-05T13:21:27.301Z,4.55
2022-10-05T13:24:17.614Z,3.88
2022-10-05T13:26:50.731Z,3.58
2022-10-05T13:29:42.713Z,3.80
2022-10-05T13:32:32.089Z,3.22
2022-10-05T13:35:24.191Z,3.28
2022-10-05T13:38:29.586Z,3.72
2022-10-05T13:41:13.426Z,3.72
2022-10-05T13:44:04.461Z,4.55
2022-10-05T13:46:38.286Z,3.83
2022-10-05T13:49:55.069Z,3.88
2022-10-05T13:52:34.921Z,3.60
2022-10-05T13:55:22.018Z,3.25
2022-10-05T14:00:26.609Z,3.25
2022-10-05T14:02:57.010Z,2.75
2022-10-05T14:05:27.023Z,2.50
2022-10-05T14:08:02.595Z,2.72
2022-10-05T14:10:40.768Z,2.05
2022-10-05T14:13:46.678Z,2.45
2022-10-05T14:16:13.530Z,4.38
2022-10-05T14:18:59.159Z,2.53
2022-10-05T14:21:30.482Z,2.60
2022-10-05T14:24:44.007Z,2.70
2022-10-05T14:27:25.587Z,2.60
2022-10-05T14:30:16.816Z,2.47
2022-10-05T14:32:57.375Z,2.58
2022-10-05T14:35:49.190Z,2.20
2022-10-05T14:38:25.664Z,2.40
2022-10-05T14:41:17.210Z,2.47
2022-10-05T14:44:16.782Z,2.45
2022-10-05T14:46:54.507Z,2.47
2022-10-05T14:49:25.707Z,2.67
2022-10-05T14:51:53.832Z,3.13
2022-10-05T14:54:29.686Z,2.88
2022-10-05T14:57:17.021Z,2.97
2022-10-05T15:00:22.626Z,2.90
2022-10-05T15:03:27.259Z,2.80
2022-10-05T15:05:58.742Z,3.40
2022-10-05T15:08:31.418Z,2.15
2022-10-05T15:11:25.883Z,2.45
2022-10-05T15:13:53.515Z,2.40
2022-10-05T15:16:26.114Z,2.30
2022-10-05T15:19:18.514Z,2.33
2022-10-05T15:22:00.979Z,2.78
2022-10-05T15:24:45.688Z,2.67
2022-10-05T15:27:26.133Z,2.65
2022-10-05T15:30:03.432Z,2.65
2022-10-05T15:32:42.587Z,2.63
2022-10-05T15:35:31.177Z,2.90
2022-10-05T15:38:25.732Z,2.80
2022-10-05T15:41:19.950Z,2.50
2022-10-05T15:43:53.650Z,2.20
2022-10-05T15:46:34.040Z,3.25
2022-10-05T15:49:11.483Z,2.47
2022-10-05T15:51:48.447Z,3.35
2022-10-05T15:57:13.398Z,3.40
2022-10-05T16:00:00.530Z,2.67
2022-10-05T16:02:52.961Z,2.92
2022-10-05T16:05:42.728Z,2.80
2022-10-05T16:08:56.423Z,2.95
2022-10-05T16:11:49.094Z,3.65
2022-10-05T16:14:29.088Z,3.03
2022-10-05T16:17:15.436Z,3.58
2022-10-05T16:19:42.125Z,3.28
2022-10-05T16:23:02.572Z,3.38
2022-10-05T16:25:50.550Z,3.60
2022-10-05T16:28:33.430Z,2.97
2022-10-05T16:31:12.981Z,2.80
2022-10-05T16:33:46.741Z,3.03
2022-10-05T16:36:52.421Z,3.70
2022-10-05T16:39:25.370Z,3.00
2022-10-05T16:42:19.836Z,3.88
2022-10-05T16:45:11.055Z,3.25
2022-10-05T16:47:59.313Z,2.92
2022-10-05T16:50:55.205Z,4.22
2022-10-05T16:53:36.296Z,3.55
2022-10-05T16:56:11.169Z,3.03
2022-10-05T16:58:56.509Z,3.72
2022-10-05T17:01:58.580Z,3.63
2022-10-05T17:04:35.509Z,3.55
2022-10-05T17:07:24.276Z,4.32
2022-10-05T17:10:08.017Z,2.95
2022-10-05T17:12:53.123Z,3.53
2022-10-05T17:16:04.158Z,3.55
2022-10-05T17:18:51.343Z,3.00
2022-10-05T17:21:46.157Z,3.30
2022-10-05T17:24:23.398Z,3.20
2022-10-05T17:27:02.791Z,3.05
2022-10-05T17:29:47.525Z,3.40
2022-10-05T17:32:17.422Z,3.58
2022-10-05T17:35:18.151Z,3.85
2022-10-05T17:38:14.085Z,3.30
2022-10-05T17:41:03.242Z,3.40
2022-10-05T17:43:31.521Z,3.55
2022-10-05T17:46:10.935Z,3.35
2022-10-05T17:49:01.276Z,3.95
2022-10-05T17:51:46.604Z,3.75
2022-10-05T17:55:00.679Z,3.13
2022-10-05T17:57:27.823Z,3.63
2022-10-05T17:59:57.484Z,3.45
2022-10-05T18:02:36.952Z,3.00
2022-10-05T18:05:06.716Z,3.05
2022-10-05T18:07:35.256Z,3.28
2022-10-05T18:10:15.283Z,2.63
2022-10-05T18:12:48.239Z,3.47
2022-10-05T18:15:24.033Z,3.13
2022-10-05T18:17:57.413Z,3.08
2022-10-05T18:20:24.140Z,2.78
2022-10-05T18:25:25.989Z,2.80
2022-10-05T18:28:14.456Z,3.00
2022-10-05T18:31:03.065Z,2.90
2022-10-05T18:34:02.414Z,2.67
2022-10-05T18:36:57.188Z,2.85
2022-10-05T18:39:45.255Z,3.20
2022-10-05T18:42:37.725Z,2.63
2022-10-05T18:45:25.483Z,2.40
2022-10-05T18:48:24.820Z,3.72
2022-10-05T18:51:28.326Z,3.13
2022-10-05T18:54:18.314Z,2.70
2022-10-05T18:56:52.750Z,2.08
2022-10-05T18:59:43.892Z,2.70
2022-10-05T19:02:27.489Z,2.53
2022-10-05T19:05:46.854Z,2.42
2022-10-05T19:08:33.679Z,2.28
2022-10-05T19:11:27.843Z,2.28
2022-10-05T19:14:10.465Z,2.00
2022-10-05T19:17:08.022Z,1.95
2022-10-05T19:19:57.444Z,2.10
2022-10-05T19:22:32.943Z,2.10
2022-10-05T19:25:05.539Z,2.10
2022-10-05T19:27:55.072Z,2.08
2022-10-05T19:30:30.000Z,2.10
2022-10-05T19:33:20.199Z,2.25
2022-10-05T19:35:58.011Z,2.20
2022-10-05T19:38:52.317Z,1.80
2022-10-05T19:41:35.567Z,1.90
2022-10-05T19:44:44.266Z,2.22
2022-10-05T19:47:29.064Z,1.58
2022-10-05T19:49:55.802Z,2.00
2022-10-05T19:55:21.149Z,2.53
2022-10-05T19:57:56.242Z,2.22
2022-10-05T20:00:26.744Z,2.17
2022-10-05T20:03:15.258Z,1.92
2022-10-05T20:05:42.206Z,2.25
2022-10-05T20:10:41.498Z,1.90
2022-10-05T20:16:34.580Z,2.17
2022-10-05T20:19:20.912Z,2.50
2022-10-05T20:21:53.324Z,2.45
2022-10-05T20:24:25.764Z,2.47
2022-10-05T20:27:07.082Z,1.77
2022-10-05T20:29:38.100Z,2.17
2022-10-05T20:32:13.256Z,2.45
2022-10-05T20:34:43.428Z,2.28
2022-10-05T20:37:17.212Z,2.03
2022-10-05T20:39:45.046Z,2.60
2022-10-05T20:42:12.199Z,2.17
2022-10-05T20:44:39.661Z,2.38
2022-10-05T20:47:09.926Z,1.95
2022-10-05T20:49:39.093Z,1.90
2022-10-05T20:52:09.748Z,2.00
2022-10-05T20:54:38.521Z,2.13
2022-10-05T20:57:09.541Z,2.53
2022-10-05T20:59:37.866Z,2.60
2022-10-05T21:02:05.683Z,2.45
2022-10-05T21:04:40.885Z,2.83
2022-10-05T21:07:08.333Z,2.20
2022-10-05T21:09:37.894Z,2.33
2022-10-05T21:12:04.718Z,2.38
2022-10-05T21:17:01.853Z,2.25
2022-10-05T21:19:29.403Z,2.30
2022-10-05T21:21:59.341Z,2.53
2022-10-05T21:24:27.576Z,2.30
2022-10-05T21:26:57.414Z,2.28
2022-10-05T21:29:24.180Z,2.42
2022-10-05T21:34:17.956Z,2.42
2022-10-05T21:39:11.257Z,2.10
2022-10-05T21:41:38.002Z,2.60
2022-10-05T21:44:06.200Z,2.40
2022-10-05T21:46:36.241Z,2.63
2022-10-05T21:49:03.130Z,2.13
2022-10-05T21:51:29.854Z,2.35
2022-10-05T21:56:30.375Z,2.38
2022-10-05T21:58:57.721Z,2.40
2022-10-05T22:01:24.518Z,2.30
2022-10-05T22:03:51.708Z,3.53
2022-10-05T22:06:18.373Z,2.65
2022-10-05T22:08:45.114Z,2.55
2022-10-05T22:13:48.677Z,3.08
2022-10-05T22:16:17.013Z,2.50
2022-10-05T22:18:44.033Z,2.47
2022-10-05T22:21:13.164Z,2.78
2022-10-05T22:23:41.652Z,2.97
2022-10-05T22:26:10.805Z,2.67
2022-10-05T22:28:39.809Z,2.85
2022-10-05T22:31:07.934Z,2.65
2022-10-05T22:33:34.980Z,3.08
2022-10-05T22:36:01.782Z,2.78
2022-10-05T22:38:30.575Z,2.45
2022-10-05T22:40:57.983Z,3.08
2022-10-05T22:43:26.905Z,2.40
2022-10-05T22:45:54.210Z,3.25
2022-10-05T22:48:20.966Z,3.03
2022-10-05T22:50:48.044Z,2.38
2022-10-05T22:53:14.909Z,3.38
2022-10-05T22:58:08.296Z,2.85
2022-10-05T23:03:21.622Z,2.65
2022-10-05T23:05:48.332Z,3.50
2022-10-05T23:08:16.013Z,3.67
2022-10-05T23:10:43.289Z,2.88
2022-10-05T23:13:10.128Z,2.40
2022-10-05T23:18:03.471Z,3.13
2022-10-05T23:20:30.181Z,2.60
2022-10-05T23:22:58.705Z,2.50
2022-10-05T23:25:25.675Z,2.97
2022-10-05T23:27:52.451Z,3.50
2022-10-05T23:30:19.246Z,3.33
2022-10-05T23:35:13.278Z,3.33
2022-10-05T23:37:42.975Z,3.17
2022-10-05T23:40:12.302Z,3.00
2022-10-05T23:42:40.261Z,2.60
2022-10-05T23:45:10.962Z,3.13
2022-10-05T23:47:38.672Z,4.25
2022-10-05T23:50:06.956Z,3.28
2022-10-05T23:52:34.987Z,3.20
2022-10-05T23:55:02.727Z,4.00
2022-10-05T23:57:29.429Z,3.22
2022-10-05T23:59:56.311Z,3.60
